Mendoza, Texas
Current Conditions -  °F | °C
As of 9:48 AM on Friday 19 Dec 2014 (Local Time) from KHYI Reporting Station
Broken Clouds Broken Clouds  
Wind Chill: 52°   Ceiling: 4500
Heat Index: 52°   Visibility: 8mi
Dew Point: 48°   Wind: 15mph
Humidity: 88%   Direction: 10°N
Pressure: 30.11"   Gusts: NA
Location:  29.8965°N, 97.6713°W
Report Text: KHYI 191548Z 01013KT 8SM SCT009 BKN045 BKN055 11/09 A3011
Loading
Personal Weather Stations






























Interactive Weather Map New forecast layout! Learn more

10-Day Weather Forecast

Advertisements
Track Severe Weather on mobile